Time,TemperatureF,DewpointF,PressureIn,WindDirection,WindDirectionDegrees,WindSpeedMPH,WindSpeedGustMPH,Humidity,HourlyPrecipIn,Conditions,Clouds,dailyrainin,SoftwareType,DateUTC
2013-05-02 00:01:00,63.5,47.0,29.85,SE,135,0.0,0.0,55,0.00,CLR,,0.00,WeatherDisplay:10.37,2013-05-02 05:01:00,
2013-05-02 00:06:00,63.1,47.7,29.85,SE,135,0.0,0.0,57,0.00,CLR,,0.00,WeatherDisplay:10.37,2013-05-02 05:06:00,
2013-05-02 00:11:00,63.1,47.2,29.85,SE,135,0.0,0.0,56,0.00,CLR,,0.00,WeatherDisplay:10.37,2013-05-02 05:11:00,
2013-05-02 00:16:00,63.1,46.7,29.85,SE,135,0.0,0.0,55,0.00,CLR,,0.00,WeatherDisplay:10.37,2013-05-02 05:16:00,
2013-05-02 00:21:00,63.1,47.2,29.85,SE,135,0.0,0.0,56,0.00,CLR,,0.00,WeatherDisplay:10.37,2013-05-02 05:21:00,
2013-05-02 00:26:00,63.0,47.0,29.85,SE,135,0.0,0.0,56,0.00,CLR,,0.00,WeatherDisplay:10.37,2013-05-02 05:26:00,
2013-05-02 00:31:00,63.0,47.5,29.85,SE,135,0.0,0.0,57,0.00,CLR,,0.00,WeatherDisplay:10.37,2013-05-02 05:31:00,
2013-05-02 00:36:00,63.1,47.7,29.85,SE,135,0.0,0.0,57,0.00,CLR,,0.00,WeatherDisplay:10.37,2013-05-02 05:36:00,
2013-05-02 00:41:00,63.1,47.7,29.88,SE,135,0.0,0.0,57,0.00,CLR,,0.00,WeatherDisplay:10.37,2013-05-02 05:41:00,
2013-05-02 00:46:00,63.3,48.7,29.88,SE,135,0.0,0.0,59,0.00,CLR,,0.00,WeatherDisplay:10.37,2013-05-02 05:46:00,
2013-05-02 00:51:00,63.5,49.4,29.91,SE,135,0.0,0.0,60,0.00,CLR,,0.00,WeatherDisplay:10.37,2013-05-02 05:51:00,
2013-05-02 00:56:00,63.5,48.9,29.91,SE,135,0.0,0.0,59,0.00,CLR,,0.00,WeatherDisplay:10.37,2013-05-02 05:56:00,
2013-05-02 01:01:00,63.7,49.5,29.91,SE,135,0.0,0.0,60,0.00,CLR,,0.00,WeatherDisplay:10.37,2013-05-02 06:01:00,
2013-05-02 01:06:00,63.7,50.0,29.91,SE,135,0.0,0.0,61,0.00,CLR,,0.00,WeatherDisplay:10.37,2013-05-02 06:06:00,
2013-05-02 01:11:00,63.7,49.5,29.91,SE,135,0.0,0.0,60,0.00,CLR,,0.00,WeatherDisplay:10.37,2013-05-02 06:11:00,
2013-05-02 01:16:00,63.9,50.1,29.91,SE,135,0.0,0.0,61,0.00,CLR,,0.00,WeatherDisplay:10.37,2013-05-02 06:16:00,
2013-05-02 01:21:00,63.9,50.1,29.91,SE,135,0.0,0.0,61,0.00,CLR,,0.00,WeatherDisplay:10.37,2013-05-02 06:21:00,
2013-05-02 01:26:00,63.9,50.1,29.91,SE,135,0.0,0.0,61,0.00,CLR,,0.00,WeatherDisplay:10.37,2013-05-02 06:26:00,
2013-05-02 01:31:00,63.7,50.0,29.91,SE,135,0.0,0.0,61,0.00,CLR,,0.00,WeatherDisplay:10.37,2013-05-02 06:31:00,
2013-05-02 01:36:00,63.7,50.0,29.91,SE,135,0.0,0.0,61,0.00,CLR,,0.00,WeatherDisplay:10.37,2013-05-02 06:36:00,
2013-05-02 01:41:00,63.7,50.0,29.91,SE,135,0.0,0.0,61,0.00,CLR,,0.00,WeatherDisplay:10.37,2013-05-02 06:41:00,
2013-05-02 01:46:00,63.7,50.4,29.91,SE,135,0.0,0.0,62,0.00,CLR,,0.00,WeatherDisplay:10.37,2013-05-02 06:46:00,
2013-05-02 01:51:00,63.5,49.4,29.91,SE,135,0.0,0.0,60,0.00,CLR,,0.00,WeatherDisplay:10.37,2013-05-02 06:51:00,
2013-05-02 01:56:00,63.5,49.4,29.91,SE,135,0.0,0.0,60,0.00,CLR,,0.00,WeatherDisplay:10.37,2013-05-02 06:56:00,
2013-05-02 02:01:00,63.5,49.8,29.91,SE,135,0.0,0.0,61,0.00,CLR,,0.00,WeatherDisplay:10.37,2013-05-02 07:01:00,
2013-05-02 02:06:00,63.5,50.7,29.91,SE,135,0.0,0.0,63,0.00,CLR,,0.00,WeatherDisplay:10.37,2013-05-02 07:06:00,
2013-05-02 02:11:00,63.7,51.7,29.91,SE,135,0.0,0.0,65,0.00,CLR,,0.00,WeatherDisplay:10.37,2013-05-02 07:11:00,
2013-05-02 02:16:00,64.0,54.8,29.91,SE,135,0.0,0.0,72,0.00,CLR,,0.00,WeatherDisplay:10.37,2013-05-02 07:16:00,
2013-05-02 02:21:00,64.2,56.1,29.88,WNW,292,0.0,0.0,75,0.00,CLR,,0.00,WeatherDisplay:10.37,2013-05-02 07:21:00,
2013-05-02 02:26:00,64.2,54.6,29.88,WSW,248,0.0,0.0,71,0.00,CLR,,0.00,WeatherDisplay:10.37,2013-05-02 07:26:00,
2013-05-02 02:31:00,64.4,54.0,29.88,WSW,248,0.0,0.0,69,0.00,CLR,,0.00,WeatherDisplay:10.37,2013-05-02 07:31:00,
2013-05-02 02:36:00,64.4,53.2,29.91,WSW,248,0.0,0.0,67,0.00,CLR,,0.00,WeatherDisplay:10.37,2013-05-02 07:36:00,
2013-05-02 02:41:00,64.4,52.8,29.91,WSW,248,0.0,0.0,66,0.00,CLR,,0.00,WeatherDisplay:10.37,2013-05-02 07:41:00,
2013-05-02 02:46:00,64.6,53.0,29.91,WSW,248,0.0,0.0,66,0.00,CLR,,0.00,WeatherDisplay:10.37,2013-05-02 07:46:00,
2013-05-02 02:52:00,64.6,52.5,29.91,WSW,248,0.0,0.0,65,0.00,CLR,,0.00,WeatherDisplay:10.37,2013-05-02 07:52:00,
2013-05-02 02:57:00,64.6,52.1,29.91,WSW,248,0.0,0.0,64,0.00,CLR,,0.00,WeatherDisplay:10.37,2013-05-02 07:57:00,
2013-05-02 03:02:00,64.6,51.7,29.91,WSW,248,0.0,0.0,63,0.00,CLR,,0.00,WeatherDisplay:10.37,2013-05-02 08:02:00,
2013-05-02 03:07:00,64.6,51.7,29.91,SSW,202,0.0,0.0,63,0.00,CLR,,0.00,WeatherDisplay:10.37,2013-05-02 08:07:00,
2013-05-02 03:12:00,64.4,52.0,29.91,SSW,202,0.0,0.0,64,0.00,CLR,,0.00,WeatherDisplay:10.37,2013-05-02 08:12:00,
2013-05-02 03:17:00,64.2,51.4,29.91,SSW,202,0.0,0.0,63,0.00,CLR,,0.00,WeatherDisplay:10.37,2013-05-02 08:17:00,
2013-05-02 03:22:00,64.2,51.4,29.91,SSW,202,0.0,0.0,63,0.00,CLR,,0.00,WeatherDisplay:10.37,2013-05-02 08:22:00,
2013-05-02 03:27:00,64.2,52.6,29.91,SSW,202,0.0,0.0,66,0.00,CLR,,0.00,WeatherDisplay:10.37,2013-05-02 08:27:00,
2013-05-02 03:32:00,64.0,53.3,29.91,West,270,0.0,0.0,68,0.00,CLR,,0.00,WeatherDisplay:10.37,2013-05-02 08:32:00,
2013-05-02 03:37:00,64.0,52.9,29.91,West,270,0.0,0.0,67,0.00,CLR,,0.00,WeatherDisplay:10.37,2013-05-02 08:37:00,
2013-05-02 03:42:00,64.2,53.8,29.91,West,270,0.0,0.0,69,0.00,CLR,,0.00,WeatherDisplay:10.37,2013-05-02 08:42:00,
2013-05-02 03:47:00,64.4,55.9,29.91,WNW,292,0.0,0.0,74,0.00,CLR,,0.00,WeatherDisplay:10.37,2013-05-02 08:47:00,
2013-05-02 03:52:00,64.6,57.2,29.91,NW,315,0.0,0.0,77,0.00,CLR,,0.00,WeatherDisplay:10.37,2013-05-02 08:52:00,
2013-05-02 03:57:00,64.6,57.2,29.91,WNW,292,0.0,0.0,77,0.00,CLR,,0.00,WeatherDisplay:10.37,2013-05-02 08:57:00,
2013-05-02 04:02:00,64.6,56.8,29.91,NW,315,0.0,0.0,76,0.00,CLR,,0.00,WeatherDisplay:10.37,2013-05-02 09:02:00,
2013-05-02 04:07:00,64.6,56.8,29.91,WNW,292,0.0,0.0,76,0.00,CLR,,0.00,WeatherDisplay:10.37,2013-05-02 09:07:00,
2013-05-02 04:12:00,64.4,56.7,29.91,NE,45,0.0,0.0,76,0.00,CLR,,0.00,WeatherDisplay:10.37,2013-05-02 09:12:00,
2013-05-02 04:17:00,64.2,56.5,29.91,North,0,0.0,0.0,76,0.00,CLR,,0.00,WeatherDisplay:10.37,2013-05-02 09:17:00,
2013-05-02 04:22:00,64.2,56.1,29.88,WNW,292,0.0,0.0,75,0.00,CLR,,0.00,WeatherDisplay:10.37,2013-05-02 09:22:00,
2013-05-02 04:27:00,64.0,56.3,29.88,West,270,0.0,0.0,76,0.00,CLR,,0.00,WeatherDisplay:10.37,2013-05-02 09:27:00,
2013-05-02 04:32:00,63.9,55.4,29.88,West,270,0.0,0.0,74,0.00,CLR,,0.00,WeatherDisplay:10.37,2013-05-02 09:32:00,
2013-05-02 04:37:00,63.9,55.8,29.88,WNW,292,0.0,0.0,75,0.00,CLR,,0.00,WeatherDisplay:10.37,2013-05-02 09:37:00,
2013-05-02 04:42:00,63.7,55.6,29.88,West,270,0.0,0.0,75,0.00,CLR,,0.00,WeatherDisplay:10.37,2013-05-02 09:42:00,
2013-05-02 04:47:00,63.5,54.7,29.88,West,270,0.0,0.0,73,0.00,CLR,,0.00,WeatherDisplay:10.37,2013-05-02 09:47:00,
2013-05-02 04:52:00,63.5,54.3,29.88,West,270,0.0,0.0,72,0.00,CLR,,0.00,WeatherDisplay:10.37,2013-05-02 09:52:00,
2013-05-02 04:57:00,63.5,55.1,29.88,West,270,0.0,0.0,74,0.00,CLR,,0.00,WeatherDisplay:10.37,2013-05-02 09:57:00,
2013-05-02 05:02:00,63.3,56.0,29.88,NW,315,0.0,0.0,77,0.00,CLR,,0.00,WeatherDisplay:10.37,2013-05-02 10:02:00,
2013-05-02 05:07:00,63.3,56.3,29.91,NW,315,0.0,0.0,78,0.00,CLR,,0.00,WeatherDisplay:10.37,2013-05-02 10:07:00,
2013-05-02 05:12:00,63.3,56.7,29.91,WSW,248,0.0,0.0,79,0.00,CLR,,0.00,WeatherDisplay:10.37,2013-05-02 10:12:00,
2013-05-02 05:17:00,63.3,57.4,29.91,WSW,248,0.0,0.0,81,0.00,CLR,,0.00,WeatherDisplay:10.37,2013-05-02 10:17:00,
2013-05-02 05:22:00,63.3,57.0,29.91,WNW,292,0.0,0.0,80,0.00,CLR,,0.00,WeatherDisplay:10.37,2013-05-02 10:22:00,
2013-05-02 05:27:00,63.5,57.9,29.91,WNW,292,0.0,0.0,82,0.00,CLR,,0.00,WeatherDisplay:10.37,2013-05-02 10:27:00,
2013-05-02 05:32:00,63.5,57.9,29.91,NNW,338,0.0,0.0,82,0.00,CLR,,0.00,WeatherDisplay:10.37,2013-05-02 10:32:00,
2013-05-02 05:37:00,63.7,58.8,29.91,WNW,292,0.0,0.0,84,0.00,CLR,,0.00,WeatherDisplay:10.37,2013-05-02 10:37:00,
2013-05-02 05:42:00,63.5,57.9,29.91,West,270,0.0,0.0,82,0.00,CLR,,0.00,WeatherDisplay:10.37,2013-05-02 10:42:00,
2013-05-02 05:47:00,63.3,57.4,29.91,West,270,0.0,0.0,81,0.00,CLR,,0.00,WeatherDisplay:10.37,2013-05-02 10:47:00,
2013-05-02 05:52:00,63.3,57.0,29.91,WNW,292,0.0,0.0,80,0.00,CLR,,0.00,WeatherDisplay:10.37,2013-05-02 10:52:00,
2013-05-02 05:57:00,63.1,56.5,29.91,WNW,292,0.0,0.0,79,0.00,CLR,,0.00,WeatherDisplay:10.37,2013-05-02 10:57:00,
2013-05-02 06:02:00,63.0,56.0,29.91,WNW,292,0.0,0.0,78,0.00,CLR,,0.00,WeatherDisplay:10.37,2013-05-02 11:02:00,
2013-05-02 06:07:00,63.0,56.0,29.91,WNW,292,0.0,0.0,78,0.00,CLR,,0.00,WeatherDisplay:10.37,2013-05-02 11:07:00,
2013-05-02 06:12:00,62.8,55.8,29.91,WNW,292,0.0,0.0,78,0.00,CLR,,0.00,WeatherDisplay:10.37,2013-05-02 11:12:00,
2013-05-02 06:17:00,62.8,55.8,29.91,WNW,292,0.0,0.0,78,0.00,CLR,,0.00,WeatherDisplay:10.37,2013-05-02 11:17:00,
2013-05-02 06:22:00,62.6,56.0,29.94,WNW,292,0.0,0.0,79,0.00,CLR,,0.00,WeatherDisplay:10.37,2013-05-02 11:22:00,
2013-05-02 06:27:00,62.4,55.5,29.94,WNW,292,0.0,0.0,78,0.00,CLR,,0.00,WeatherDisplay:10.37,2013-05-02 11:27:00,
2013-05-02 06:32:00,62.2,54.9,29.94,WNW,292,0.0,0.0,77,0.00,CLR,,0.00,WeatherDisplay:10.37,2013-05-02 11:32:00,
2013-05-02 06:37:00,62.2,55.3,29.94,WNW,292,0.0,0.0,78,0.00,CLR,,0.00,WeatherDisplay:10.37,2013-05-02 11:37:00,
2013-05-02 06:42:00,62.2,54.9,29.94,WNW,292,0.0,0.0,77,0.00,CLR,,0.00,WeatherDisplay:10.37,2013-05-02 11:42:00,
2013-05-02 06:47:00,62.2,55.3,29.94,WNW,292,0.0,0.0,78,0.00,CLR,,0.00,WeatherDisplay:10.37,2013-05-02 11:47:00,
2013-05-02 06:52:00,62.4,55.8,29.94,WNW,292,0.0,0.0,79,0.00,CLR,,0.00,WeatherDisplay:10.37,2013-05-02 11:52:00,
2013-05-02 06:57:00,62.4,55.8,29.94,WNW,292,0.0,0.0,79,0.00,CLR,,0.00,WeatherDisplay:10.37,2013-05-02 11:57:00,
2013-05-02 07:02:00,62.4,55.8,29.94,WNW,292,0.0,0.0,79,0.00,CLR,,0.00,WeatherDisplay:10.37,2013-05-02 12:02:00,
2013-05-02 07:07:00,62.2,55.6,29.94,WNW,292,0.0,0.0,79,0.00,CLR,,0.00,WeatherDisplay:10.37,2013-05-02 12:07:00,
2013-05-02 07:12:00,62.4,55.8,29.94,WNW,292,0.0,0.0,79,0.00,CLR,,0.00,WeatherDisplay:10.37,2013-05-02 12:12:00,
2013-05-02 07:17:00,62.6,56.7,29.94,WNW,292,0.0,0.0,81,0.00,CLR,,0.00,WeatherDisplay:10.37,2013-05-02 12:17:00,
2013-05-02 07:22:00,62.8,57.5,29.97,WNW,292,0.0,0.0,83,0.00,CLR,,0.00,WeatherDisplay:10.37,2013-05-02 12:22:00,
2013-05-02 07:27:00,63.1,57.9,29.97,WNW,292,0.0,0.0,83,0.00,CLR,,0.00,WeatherDisplay:10.37,2013-05-02 12:27:00,
2013-05-02 07:32:00,63.3,57.7,29.97,NW,315,0.0,0.0,82,0.00,CLR,,0.00,WeatherDisplay:10.37,2013-05-02 12:32:00,
2013-05-02 07:37:00,63.5,58.2,29.97,NW,315,0.0,0.0,83,0.00,CLR,,0.00,WeatherDisplay:10.37,2013-05-02 12:37:00,
2013-05-02 07:42:00,63.7,58.1,29.97,NNW,338,0.0,0.0,82,0.00,CLR,,0.00,WeatherDisplay:10.37,2013-05-02 12:42:00,
2013-05-02 07:47:00,64.0,58.4,29.97,NNW,338,0.0,0.0,82,0.00,CLR,,0.00,WeatherDisplay:10.37,2013-05-02 12:47:00,
2013-05-02 07:52:00,64.2,58.6,29.97,WNW,292,0.0,0.0,82,0.00,CLR,,0.00,WeatherDisplay:10.37,2013-05-02 12:52:00,
2013-05-02 07:57:00,64.4,58.4,29.97,WNW,292,0.0,0.0,81,0.00,CLR,,0.00,WeatherDisplay:10.37,2013-05-02 12:57:00,
2013-05-02 08:02:00,64.6,57.9,29.97,WNW,292,0.0,0.0,79,0.00,CLR,,0.00,WeatherDisplay:10.37,2013-05-02 13:02:00,
2013-05-02 08:07:00,64.6,55.7,29.97,NW,315,0.0,0.0,73,0.00,CLR,,0.00,WeatherDisplay:10.37,2013-05-02 13:07:00,
2013-05-02 08:12:00,64.9,56.1,29.97,NNW,338,0.0,0.0,73,0.00,CLR,,0.00,WeatherDisplay:10.37,2013-05-02 13:12:00,
2013-05-02 08:17:00,65.1,55.9,29.97,WSW,248,0.0,0.0,72,0.00,CLR,,0.00,WeatherDisplay:10.37,2013-05-02 13:17:00,
2013-05-02 08:22:00,65.3,54.5,29.97,NW,315,0.0,0.0,68,0.00,CLR,,0.00,WeatherDisplay:10.37,2013-05-02 13:22:00,
2013-05-02 08:27:00,65.5,54.6,29.97,NW,315,0.0,0.0,68,0.00,CLR,,0.00,WeatherDisplay:10.37,2013-05-02 13:27:00,
2013-05-02 08:32:00,65.3,52.8,29.97,NW,315,0.0,0.0,64,0.00,CLR,,0.00,WeatherDisplay:10.37,2013-05-02 13:32:00,
2013-05-02 08:37:00,65.5,52.5,29.94,NNW,338,0.0,0.0,63,0.00,CLR,,0.00,WeatherDisplay:10.37,2013-05-02 13:37:00,
2013-05-02 08:42:00,65.7,52.7,29.94,WNW,292,0.0,0.0,63,0.00,CLR,,0.00,WeatherDisplay:10.37,2013-05-02 13:42:00,
2013-05-02 08:47:00,66.0,51.7,29.94,North,0,0.0,0.0,60,0.00,CLR,,0.00,WeatherDisplay:10.37,2013-05-02 13:47:00,
2013-05-02 08:52:00,66.4,51.2,29.97,NW,315,0.0,0.0,58,0.00,CLR,,0.00,WeatherDisplay:10.37,2013-05-02 13:52:00,
2013-05-02 08:57:00,66.4,49.7,29.97,NNE,22,0.0,0.0,55,0.00,CLR,,0.00,WeatherDisplay:10.37,2013-05-02 13:57:00,
2013-05-02 09:02:00,66.4,48.2,29.97,North,0,0.0,0.0,52,0.00,CLR,,0.00,WeatherDisplay:10.37,2013-05-02 14:02:00,
2013-05-02 09:07:00,66.9,49.7,29.97,North,0,0.0,0.0,54,0.00,CLR,,0.00,WeatherDisplay:10.37,2013-05-02 14:07:00,
2013-05-02 09:12:00,66.9,47.7,29.97,NNE,22,0.0,0.0,50,0.00,CLR,,0.00,WeatherDisplay:10.37,2013-05-02 14:12:00,
2013-05-02 09:17:00,66.9,47.7,29.97,North,0,0.0,0.0,50,0.00,CLR,,0.00,WeatherDisplay:10.37,2013-05-02 14:17:00,
2013-05-02 09:22:00,67.1,47.3,29.97,North,0,0.0,0.0,49,0.00,CLR,,0.00,WeatherDisplay:10.37,2013-05-02 14:22:00,
2013-05-02 09:28:00,67.1,46.2,29.97,North,0,0.0,0.0,47,0.00,CLR,,0.00,WeatherDisplay:10.37,2013-05-02 14:28:00,
2013-05-02 09:33:00,67.3,45.8,29.97,NNW,338,0.0,0.0,46,0.00,CLR,,0.00,WeatherDisplay:10.37,2013-05-02 14:33:00,
2013-05-02 09:38:00,67.5,45.9,29.97,NW,315,0.0,0.0,46,0.00,CLR,,0.00,WeatherDisplay:10.37,2013-05-02 14:38:00,
2013-05-02 09:43:00,68.4,47.9,29.97,NNE,22,0.0,0.0,48,0.00,CLR,,0.00,WeatherDisplay:10.37,2013-05-02 14:43:00,
2013-05-02 09:48:00,67.6,45.5,29.97,NE,45,0.0,0.0,45,0.00,CLR,,0.00,WeatherDisplay:10.37,2013-05-02 14:48:00,
2013-05-02 09:53:00,67.6,46.1,29.97,North,0,0.0,0.0,46,0.00,CLR,,0.00,WeatherDisplay:10.37,2013-05-02 14:53:00,
2013-05-02 09:58:00,67.3,45.2,29.97,North,0,0.0,0.0,45,0.00,CLR,,0.00,WeatherDisplay:10.37,2013-05-02 14:58:00,
2013-05-02 10:03:00,67.3,45.2,29.97,North,0,0.0,0.0,45,0.00,CLR,,0.00,WeatherDisplay:10.37,2013-05-02 15:03:00,
2013-05-02 10:08:00,66.9,44.9,29.97,East,90,0.0,0.0,45,0.00,CLR,,0.00,WeatherDisplay:10.37,2013-05-02 15:08:00,
2013-05-02 10:13:00,67.8,46.3,29.97,NW,315,0.0,0.0,46,0.00,CLR,,0.00,WeatherDisplay:10.37,2013-05-02 15:13:00,
2013-05-02 10:18:00,68.7,45.3,29.97,NNW,338,0.0,0.0,43,0.00,CLR,,0.00,WeatherDisplay:10.37,2013-05-02 15:18:00,
2013-05-02 10:23:00,69.3,44.5,29.97,NNE,22,0.0,0.0,41,0.00,CLR,,0.00,WeatherDisplay:10.37,2013-05-02 15:23:00,
2013-05-02 10:28:00,69.4,42.7,29.97,NNE,22,0.0,0.0,38,0.00,CLR,,0.00,WeatherDisplay:10.37,2013-05-02 15:28:00,
2013-05-02 10:33:00,69.3,41.9,29.97,West,270,0.0,0.0,37,0.00,CLR,,0.00,WeatherDisplay:10.37,2013-05-02 15:33:00,
2013-05-02 10:38:00,69.4,41.3,29.97,West,270,0.0,0.0,36,0.00,CLR,,0.00,WeatherDisplay:10.37,2013-05-02 15:38:00,
2013-05-02 10:43:00,69.6,41.5,29.97,ENE,68,0.0,0.0,36,0.00,CLR,,0.00,WeatherDisplay:10.37,2013-05-02 15:43:00,
2013-05-02 10:48:00,69.3,41.2,29.97,North,0,0.0,0.0,36,0.00,CLR,,0.00,WeatherDisplay:10.37,2013-05-02 15:48:00,
2013-05-02 10:53:00,69.6,41.5,29.97,North,0,0.0,0.0,36,0.00,CLR,,0.00,WeatherDisplay:10.37,2013-05-02 15:53:00,
2013-05-02 10:58:00,70.7,41.7,29.97,North,0,0.0,0.0,35,0.00,CLR,,0.00,WeatherDisplay:10.37,2013-05-02 15:58:00,
2013-05-02 11:03:00,69.6,40.7,29.97,ENE,68,0.0,0.0,35,0.00,CLR,,0.00,WeatherDisplay:10.37,2013-05-02 16:03:00,
2013-05-02 11:08:00,69.4,39.8,29.97,WNW,292,0.0,0.0,34,0.00,CLR,,0.00,WeatherDisplay:10.37,2013-05-02 16:08:00,
2013-05-02 11:13:00,69.8,40.2,29.97,NW,315,0.0,0.0,34,0.00,CLR,,0.00,WeatherDisplay:10.37,2013-05-02 16:13:00,
2013-05-02 11:18:00,70.2,40.5,29.97,North,0,0.0,0.0,34,0.00,CLR,,0.00,WeatherDisplay:10.37,2013-05-02 16:18:00,
2013-05-02 11:23:00,69.1,39.5,30.00,North,0,0.0,0.0,34,0.00,CLR,,0.00,WeatherDisplay:10.37,2013-05-02 16:23:00,
2013-05-02 11:28:00,69.3,39.7,30.00,East,90,0.0,0.0,34,0.00,CLR,,0.00,WeatherDisplay:10.37,2013-05-02 16:28:00,
2013-05-02 11:33:00,70.0,40.3,30.00,North,0,0.0,0.0,34,0.00,CLR,,0.00,WeatherDisplay:10.37,2013-05-02 16:33:00,
2013-05-02 11:38:00,70.7,40.2,29.97,East,90,0.0,0.0,33,0.00,CLR,,0.00,WeatherDisplay:10.37,2013-05-02 16:38:00,
2013-05-02 11:43:00,70.3,39.9,29.97,NE,45,0.0,0.0,33,0.00,CLR,,0.00,WeatherDisplay:10.37,2013-05-02 16:43:00,
2013-05-02 11:48:00,70.0,38.8,29.97,ENE,68,0.0,0.0,32,0.00,CLR,,0.00,WeatherDisplay:10.37,2013-05-02 16:48:00,
2013-05-02 11:53:00,69.6,38.4,30.00,NNE,22,0.0,0.0,32,0.00,CLR,,0.00,WeatherDisplay:10.37,2013-05-02 16:53:00,
2013-05-02 11:58:00,69.4,39.1,30.00,NNE,22,0.0,0.0,33,0.00,CLR,,0.00,WeatherDisplay:10.37,2013-05-02 16:58:00,
2013-05-02 12:03:00,69.8,38.6,30.00,NNE,22,0.0,0.0,32,0.00,CLR,,0.00,WeatherDisplay:10.37,2013-05-02 17:03:00,
2013-05-02 12:08:00,70.3,39.1,30.00,NNW,338,0.0,0.0,32,0.00,CLR,,0.00,WeatherDisplay:10.37,2013-05-02 17:08:00,
2013-05-02 12:13:00,70.7,38.6,30.00,East,90,0.0,0.0,31,0.00,CLR,,0.00,WeatherDisplay:10.37,2013-05-02 17:13:00,
2013-05-02 12:18:00,71.2,39.0,30.00,NW,315,0.0,0.0,31,0.00,CLR,,0.00,WeatherDisplay:10.37,2013-05-02 17:18:00,
2013-05-02 12:23:00,70.9,39.5,30.00,WNW,292,0.0,0.0,32,0.00,CLR,,0.00,WeatherDisplay:10.37,2013-05-02 17:23:00,
2013-05-02 12:28:00,69.8,38.6,30.00,NNE,22,0.0,0.0,32,0.00,CLR,,0.00,WeatherDisplay:10.37,2013-05-02 17:28:00,
2013-05-02 12:33:00,69.8,38.6,30.00,NW,315,0.0,0.0,32,0.00,CLR,,0.00,WeatherDisplay:10.37,2013-05-02 17:33:00,
2013-05-02 12:38:00,69.6,38.4,30.00,NNE,22,0.0,0.0,32,0.00,CLR,,0.00,WeatherDisplay:10.37,2013-05-02 17:38:00,
2013-05-02 12:43:00,69.3,38.1,30.00,NNW,338,0.0,0.0,32,0.00,CLR,,0.00,WeatherDisplay:10.37,2013-05-02 17:43:00,
2013-05-02 12:48:00,69.8,38.6,30.00,North,0,0.0,0.0,32,0.00,CLR,,0.00,WeatherDisplay:10.37,2013-05-02 17:48:00,
2013-05-02 12:53:00,69.8,38.6,30.03,West,270,0.0,0.0,32,0.00,CLR,,0.00,WeatherDisplay:10.37,2013-05-02 17:53:00,
2013-05-02 12:58:00,70.7,39.4,30.03,NNE,22,0.0,0.0,32,0.00,CLR,,0.00,WeatherDisplay:10.37,2013-05-02 17:58:00,
2013-05-02 13:03:00,70.3,39.1,30.03,North,0,0.0,0.0,32,0.00,CLR,,0.00,WeatherDisplay:10.37,2013-05-02 18:03:00,
2013-05-02 13:08:00,70.3,39.1,30.03,North,0,0.0,0.0,32,0.00,CLR,,0.00,WeatherDisplay:10.37,2013-05-02 18:08:00,
2013-05-02 13:13:00,70.0,37.9,30.03,NNE,22,0.0,0.0,31,0.00,CLR,,0.00,WeatherDisplay:10.37,2013-05-02 18:13:00,
2013-05-02 13:18:00,70.0,38.8,30.03,WNW,292,0.0,0.0,32,0.00,CLR,,0.00,WeatherDisplay:10.37,2013-05-02 18:18:00,
2013-05-02 13:23:00,70.3,39.1,30.03,NNE,22,0.0,0.0,32,0.00,CLR,,0.00,WeatherDisplay:10.37,2013-05-02 18:23:00,
2013-05-02 13:28:00,70.2,38.9,30.03,North,0,0.0,0.0,32,0.00,CLR,,0.00,WeatherDisplay:10.37,2013-05-02 18:28:00,
2013-05-02 13:34:00,70.5,38.4,30.03,WNW,292,0.0,0.0,31,0.00,CLR,,0.00,WeatherDisplay:10.37,2013-05-02 18:34:00,
2013-05-02 13:39:00,70.3,39.1,30.03,NW,315,0.0,0.0,32,0.00,CLR,,0.00,WeatherDisplay:10.37,2013-05-02 18:39:00,
2013-05-02 13:44:00,70.3,39.1,30.03,North,0,0.0,0.0,32,0.00,CLR,,0.00,WeatherDisplay:10.37,2013-05-02 18:44:00,
2013-05-02 13:49:00,70.2,38.9,30.03,North,0,0.0,0.0,32,0.00,CLR,,0.00,WeatherDisplay:10.37,2013-05-02 18:49:00,
2013-05-02 13:54:00,70.0,38.8,30.03,NNW,338,0.0,0.0,32,0.00,CLR,,0.00,WeatherDisplay:10.37,2013-05-02 18:54:00,
2013-05-02 13:59:00,70.0,38.8,30.03,North,0,0.0,0.0,32,0.00,CLR,,0.00,WeatherDisplay:10.37,2013-05-02 18:59:00,
2013-05-02 14:04:00,69.8,38.6,30.03,West,270,0.0,0.0,32,0.00,CLR,,0.00,WeatherDisplay:10.37,2013-05-02 19:04:00,
2013-05-02 14:09:00,70.2,38.9,30.03,WNW,292,0.0,0.0,32,0.00,CLR,,0.00,WeatherDisplay:10.37,2013-05-02 19:09:00,
2013-05-02 14:14:00,70.5,38.4,30.03,NNW,338,0.0,0.0,31,0.00,CLR,,0.00,WeatherDisplay:10.37,2013-05-02 19:14:00,
2013-05-02 14:19:00,70.7,38.6,30.03,NW,315,0.0,0.0,31,0.00,CLR,,0.00,WeatherDisplay:10.37,2013-05-02 19:19:00,
2013-05-02 14:24:00,71.8,39.5,30.03,North,0,0.0,0.0,31,0.00,CLR,,0.00,WeatherDisplay:10.37,2013-05-02 19:24:00,
2013-05-02 14:29:00,73.9,41.4,30.03,WNW,292,0.0,0.0,31,0.00,CLR,,0.00,WeatherDisplay:10.37,2013-05-02 19:29:00,
2013-05-02 14:34:00,73.6,40.2,30.03,NW,315,0.0,0.0,30,0.00,CLR,,0.00,WeatherDisplay:10.37,2013-05-02 19:34:00,
2013-05-02 14:39:00,73.9,38.8,30.03,West,270,0.0,0.0,28,0.00,CLR,,0.00,WeatherDisplay:10.37,2013-05-02 19:39:00,
2013-05-02 14:44:00,74.3,37.2,30.03,West,270,0.0,0.0,26,0.00,CLR,,0.00,WeatherDisplay:10.37,2013-05-02 19:44:00,
2013-05-02 14:49:00,74.3,38.1,30.03,North,0,0.0,0.0,27,0.00,CLR,,0.00,WeatherDisplay:10.37,2013-05-02 19:49:00,
2013-05-02 14:54:00,75.6,39.2,30.03,NW,315,0.0,0.0,27,0.00,CLR,,0.00,WeatherDisplay:10.37,2013-05-02 19:54:00,
2013-05-02 14:59:00,75.4,38.1,30.03,NNW,338,0.0,0.0,26,0.00,CLR,,0.00,WeatherDisplay:10.37,2013-05-02 19:59:00,
2013-05-02 15:04:00,75.4,37.1,30.03,WNW,292,0.0,0.0,25,0.00,CLR,,0.00,WeatherDisplay:10.37,2013-05-02 20:04:00,
2013-05-02 15:09:00,75.0,36.8,30.03,WNW,292,0.0,0.0,25,0.00,CLR,,0.00,WeatherDisplay:10.37,2013-05-02 20:09:00,
2013-05-02 15:14:00,74.5,35.3,30.03,North,0,0.0,0.0,24,0.00,CLR,,0.00,WeatherDisplay:10.37,2013-05-02 20:14:00,
2013-05-02 15:19:00,73.8,35.7,30.03,NNW,338,0.0,0.0,25,0.00,CLR,,0.00,WeatherDisplay:10.37,2013-05-02 20:19:00,
2013-05-02 15:24:00,73.6,34.5,30.00,NNE,22,0.0,0.0,24,0.00,CLR,,0.00,WeatherDisplay:10.37,2013-05-02 20:24:00,
2013-05-02 15:29:00,73.6,36.6,30.00,WNW,292,0.0,0.0,26,0.00,CLR,,0.00,WeatherDisplay:10.37,2013-05-02 20:29:00,
2013-05-02 15:34:00,73.9,35.9,30.00,NNW,338,0.0,0.0,25,0.00,CLR,,0.00,WeatherDisplay:10.37,2013-05-02 20:34:00,
2013-05-02 15:39:00,74.5,35.3,29.97,North,0,0.0,0.0,24,0.00,CLR,,0.00,WeatherDisplay:10.37,2013-05-02 20:39:00,
2013-05-02 15:44:00,73.6,35.6,29.97,NW,315,0.0,0.0,25,0.00,CLR,,0.00,WeatherDisplay:10.37,2013-05-02 20:44:00,
2013-05-02 15:49:00,73.2,35.3,29.97,NW,315,0.0,0.0,25,0.00,CLR,,0.00,WeatherDisplay:10.37,2013-05-02 20:49:00,
2013-05-02 15:54:00,72.9,35.0,29.97,NW,315,0.0,0.0,25,0.00,CLR,,0.00,WeatherDisplay:10.37,2013-05-02 20:54:00,
2013-05-02 15:59:00,73.0,36.1,29.97,NW,315,0.0,0.0,26,0.00,CLR,,0.00,WeatherDisplay:10.37,2013-05-02 20:59:00,
2013-05-02 16:04:00,72.3,34.5,29.97,NW,315,0.0,0.0,25,0.00,CLR,,0.00,WeatherDisplay:10.37,2013-05-02 21:04:00,
2013-05-02 16:09:00,72.7,35.8,29.97,North,0,0.0,0.0,26,0.00,CLR,,0.00,WeatherDisplay:10.37,2013-05-02 21:09:00,
2013-05-02 16:14:00,72.7,35.8,29.97,North,0,0.0,0.0,26,0.00,CLR,,0.00,WeatherDisplay:10.37,2013-05-02 21:14:00,
2013-05-02 16:19:00,72.9,36.0,29.97,North,0,0.0,0.0,26,0.00,CLR,,0.00,WeatherDisplay:10.37,2013-05-02 21:19:00,
2013-05-02 16:24:00,73.9,37.8,29.97,North,0,0.0,0.0,27,0.00,CLR,,0.00,WeatherDisplay:10.37,2013-05-02 21:24:00,
2013-05-02 16:29:00,73.8,37.7,29.97,WNW,292,0.0,0.0,27,0.00,CLR,,0.00,WeatherDisplay:10.37,2013-05-02 21:29:00,
2013-05-02 16:34:00,73.0,37.1,29.97,West,270,0.0,0.0,27,0.00,CLR,,0.00,WeatherDisplay:10.37,2013-05-02 21:34:00,
2013-05-02 16:39:00,73.2,38.1,29.94,North,0,0.0,0.0,28,0.00,CLR,,0.00,WeatherDisplay:10.37,2013-05-02 21:39:00,
2013-05-02 16:44:00,73.0,38.0,29.94,NW,315,0.0,0.0,28,0.00,CLR,,0.00,WeatherDisplay:10.37,2013-05-02 21:44:00,
2013-05-02 16:49:00,71.8,36.9,29.94,NW,315,0.0,0.0,28,0.00,CLR,,0.00,WeatherDisplay:10.37,2013-05-02 21:49:00,
2013-05-02 16:54:00,70.5,37.6,29.97,NW,315,0.0,0.0,30,0.00,CLR,,0.00,WeatherDisplay:10.37,2013-05-02 21:54:00,
2013-05-02 16:59:00,69.3,38.1,29.97,WNW,292,0.0,0.0,32,0.00,CLR,,0.00,WeatherDisplay:10.37,2013-05-02 21:59:00,
2013-05-02 17:04:00,68.4,38.1,29.97,WNW,292,0.0,0.0,33,0.00,CLR,,0.00,WeatherDisplay:10.37,2013-05-02 22:04:00,
2013-05-02 17:09:00,68.4,38.9,29.97,NW,315,0.0,0.0,34,0.00,CLR,,0.00,WeatherDisplay:10.37,2013-05-02 22:09:00,
2013-05-02 17:14:00,68.4,39.6,29.97,NW,315,0.0,0.0,35,0.00,CLR,,0.00,WeatherDisplay:10.37,2013-05-02 22:14:00,
2013-05-02 17:19:00,68.4,40.4,29.97,WSW,248,0.0,0.0,36,0.00,CLR,,0.00,WeatherDisplay:10.37,2013-05-02 22:19:00,
2013-05-02 17:24:00,68.0,40.0,29.97,NW,315,0.0,0.0,36,0.00,CLR,,0.00,WeatherDisplay:10.37,2013-05-02 22:24:00,
2013-05-02 17:29:00,67.8,40.6,29.97,NW,315,0.0,0.0,37,0.00,CLR,,0.00,WeatherDisplay:10.37,2013-05-02 22:29:00,
2013-05-02 17:34:00,67.8,41.3,29.97,NW,315,0.0,0.0,38,0.00,CLR,,0.00,WeatherDisplay:10.37,2013-05-02 22:34:00,
2013-05-02 17:39:00,67.6,40.4,30.00,NW,315,0.0,0.0,37,0.00,CLR,,0.00,WeatherDisplay:10.37,2013-05-02 22:39:00,
2013-05-02 17:44:00,67.1,39.2,30.00,NW,315,0.0,0.0,36,0.00,CLR,,0.00,WeatherDisplay:10.37,2013-05-02 22:44:00,
2013-05-02 17:49:00,66.4,39.3,30.00,NW,315,0.0,0.0,37,0.00,CLR,,0.00,WeatherDisplay:10.37,2013-05-02 22:49:00,
2013-05-02 17:54:00,66.0,39.0,30.00,WNW,292,0.0,0.0,37,0.00,CLR,,0.00,WeatherDisplay:10.37,2013-05-02 22:54:00,
2013-05-02 17:59:00,65.5,37.1,30.00,South,180,0.0,0.0,35,0.00,CLR,,0.00,WeatherDisplay:10.37,2013-05-02 22:59:00,
2013-05-02 18:04:00,63.7,34.8,30.00,NW,315,0.0,0.0,34,0.00,CLR,,0.00,WeatherDisplay:10.37,2013-05-02 23:04:00,
2013-05-02 18:09:00,62.8,34.0,30.03,WNW,292,0.0,0.0,34,0.00,CLR,,0.00,WeatherDisplay:10.37,2013-05-02 23:09:00,
2013-05-02 18:14:00,61.9,33.9,30.03,SSE,158,0.0,0.0,35,0.00,CLR,,0.00,WeatherDisplay:10.37,2013-05-02 23:14:00,
2013-05-02 18:19:00,61.2,34.0,30.03,NW,315,0.0,0.0,36,0.00,CLR,,0.00,WeatherDisplay:10.37,2013-05-02 23:19:00,
2013-05-02 18:24:00,60.6,33.5,30.03,NW,315,0.0,0.0,36,0.00,CLR,,0.00,WeatherDisplay:10.37,2013-05-02 23:24:00,
2013-05-02 18:29:00,60.3,33.2,30.03,WNW,292,0.0,0.0,36,0.00,CLR,,0.00,WeatherDisplay:10.37,2013-05-02 23:29:00,
2013-05-02 18:34:00,59.9,33.5,30.03,WNW,292,0.0,0.0,37,0.00,CLR,,0.00,WeatherDisplay:10.37,2013-05-02 23:34:00,
2013-05-02 18:39:00,59.7,34.0,30.03,NW,315,0.0,0.0,38,0.00,CLR,,0.00,WeatherDisplay:10.37,2013-05-02 23:39:00,
2013-05-02 18:44:00,59.4,33.7,30.03,NW,315,0.0,0.0,38,0.00,CLR,,0.00,WeatherDisplay:10.37,2013-05-02 23:44:00,
2013-05-02 18:49:00,59.2,34.2,30.03,NW,315,0.0,0.0,39,0.00,CLR,,0.00,WeatherDisplay:10.37,2013-05-02 23:49:00,
2013-05-02 18:54:00,59.0,33.4,30.06,WNW,292,0.0,0.0,38,0.00,CLR,,0.00,WeatherDisplay:10.37,2013-05-02 23:54:00,
2013-05-02 19:00:00,59.0,33.4,30.06,WNW,292,0.0,0.0,38,0.00,CLR,,0.00,WeatherDisplay:10.37,2013-05-03 00:00:00,
2013-05-02 19:05:00,58.8,32.6,30.06,NW,315,0.0,0.0,37,0.00,CLR,,0.00,WeatherDisplay:10.37,2013-05-03 00:05:00,
2013-05-02 19:10:00,58.8,33.2,30.06,NW,315,0.0,0.0,38,0.00,CLR,,0.00,WeatherDisplay:10.37,2013-05-03 00:10:00,
2013-05-02 19:15:00,58.6,33.1,30.06,NW,315,0.0,0.0,38,0.00,CLR,,0.00,WeatherDisplay:10.37,2013-05-03 00:15:00,
2013-05-02 19:20:00,58.6,32.4,30.06,West,270,0.0,0.0,37,0.00,CLR,,0.00,WeatherDisplay:10.37,2013-05-03 00:20:00,
2013-05-02 19:25:00,58.5,32.3,30.06,NNE,22,0.0,0.0,37,0.00,CLR,,0.00,WeatherDisplay:10.37,2013-05-03 00:25:00,
2013-05-02 19:30:00,58.5,32.3,30.06,NW,315,0.0,0.0,37,0.00,CLR,,0.00,WeatherDisplay:10.37,2013-05-03 00:30:00,
2013-05-02 19:35:00,58.3,32.1,30.06,NW,315,0.0,0.0,37,0.00,CLR,,0.00,WeatherDisplay:10.37,2013-05-03 00:35:00,
2013-05-02 19:40:00,58.1,31.3,30.06,West,270,0.0,0.0,36,0.00,CLR,,0.00,WeatherDisplay:10.37,2013-05-03 00:40:00,
2013-05-02 19:45:00,58.1,31.3,30.06,NW,315,0.0,0.0,36,0.00,CLR,,0.00,WeatherDisplay:10.37,2013-05-03 00:45:00,
2013-05-02 19:50:00,57.9,31.1,30.06,SSW,202,0.0,0.0,36,0.00,CLR,,0.00,WeatherDisplay:10.37,2013-05-03 00:50:00,
2013-05-02 19:55:00,57.7,30.9,30.09,SE,135,0.0,0.0,36,0.00,CLR,,0.00,WeatherDisplay:10.37,2013-05-03 00:55:00,
2013-05-02 20:00:00,57.4,30.6,30.09,NW,315,0.0,0.0,36,0.00,CLR,,0.00,WeatherDisplay:10.37,2013-05-03 01:00:00,
2013-05-02 20:05:00,57.4,30.6,30.09,NW,315,0.0,0.0,36,0.00,CLR,,0.00,WeatherDisplay:10.37,2013-05-03 01:05:00,
2013-05-02 20:10:00,57.2,30.5,30.09,North,0,0.9,0.9,36,0.00,CLR,,0.00,WeatherDisplay:10.37,2013-05-03 01:10:00,
2013-05-02 20:15:00,57.0,30.3,30.09,NW,315,0.0,0.0,36,0.00,CLR,,0.00,WeatherDisplay:10.37,2013-05-03 01:15:00,
2013-05-02 20:20:00,57.0,30.3,30.09,NNW,338,0.0,0.0,36,0.00,CLR,,0.00,WeatherDisplay:10.37,2013-05-03 01:20:00,
2013-05-02 20:25:00,56.8,30.1,30.09,WNW,292,0.0,0.0,36,0.00,CLR,,0.00,WeatherDisplay:10.37,2013-05-03 01:25:00,
2013-05-02 20:30:00,56.8,30.1,30.09,WNW,292,0.0,0.0,36,0.00,CLR,,0.00,WeatherDisplay:10.37,2013-05-03 01:30:00,
2013-05-02 20:35:00,56.7,30.0,30.09,NW,315,0.0,0.0,36,0.00,CLR,,0.00,WeatherDisplay:10.37,2013-05-03 01:35:00,
2013-05-02 20:40:00,56.5,29.8,30.09,NW,315,0.0,0.0,36,0.00,CLR,,0.00,WeatherDisplay:10.37,2013-05-03 01:40:00,
2013-05-02 20:45:00,56.3,29.7,30.09,West,270,0.0,0.0,36,0.00,CLR,,0.00,WeatherDisplay:10.37,2013-05-03 01:45:00,
2013-05-02 20:50:00,56.1,29.5,30.09,WNW,292,0.0,0.0,36,0.00,CLR,,0.00,WeatherDisplay:10.37,2013-05-03 01:50:00,
2013-05-02 20:55:00,56.1,29.5,30.09,WNW,292,0.0,0.0,36,0.00,CLR,,0.00,WeatherDisplay:10.37,2013-05-03 01:55:00,
2013-05-02 21:00:00,55.9,29.3,30.09,WNW,292,0.0,0.0,36,0.00,CLR,,0.00,WeatherDisplay:10.37,2013-05-03 02:00:00,
2013-05-02 21:05:00,55.6,29.0,30.09,NNW,338,0.0,0.0,36,0.00,CLR,,0.00,WeatherDisplay:10.37,2013-05-03 02:05:00,
2013-05-02 21:10:00,55.4,28.9,30.09,WNW,292,0.0,0.0,36,0.00,CLR,,0.00,WeatherDisplay:10.37,2013-05-03 02:10:00,
2013-05-02 21:15:00,55.0,28.5,30.09,WNW,292,2.3,0.0,36,0.00,CLR,,0.00,WeatherDisplay:10.37,2013-05-03 02:15:00,
2013-05-02 21:20:00,54.9,28.4,30.09,NNW,338,0.0,0.0,36,0.00,CLR,,0.00,WeatherDisplay:10.37,2013-05-03 02:20:00,
2013-05-02 21:25:00,54.7,28.2,30.12,NNE,22,0.0,0.0,36,0.00,CLR,,0.00,WeatherDisplay:10.37,2013-05-03 02:25:00,
2013-05-02 21:30:00,54.5,28.1,30.12,NNW,338,0.0,0.0,36,0.00,CLR,,0.00,WeatherDisplay:10.37,2013-05-03 02:30:00,
2013-05-02 21:35:00,54.3,27.9,30.12,NNW,338,0.0,0.0,36,0.00,CLR,,0.00,WeatherDisplay:10.37,2013-05-03 02:35:00,
2013-05-02 21:40:00,54.1,28.4,30.12,North,0,0.0,0.0,37,0.00,CLR,,0.00,WeatherDisplay:10.37,2013-05-03 02:40:00,
2013-05-02 21:45:00,54.0,28.3,30.12,NW,315,0.0,0.0,37,0.00,CLR,,0.00,WeatherDisplay:10.37,2013-05-03 02:45:00,
2013-05-02 21:50:00,53.8,28.1,30.12,NNW,338,0.0,0.0,37,0.00,CLR,,0.00,WeatherDisplay:10.37,2013-05-03 02:50:00,
2013-05-02 21:55:00,53.6,27.9,30.15,WNW,292,0.0,0.0,37,0.00,CLR,,0.00,WeatherDisplay:10.37,2013-05-03 02:55:00,
2013-05-02 22:00:00,53.4,27.8,30.15,NW,315,0.0,0.0,37,0.00,CLR,,0.00,WeatherDisplay:10.37,2013-05-03 03:00:00,
2013-05-02 22:05:00,53.2,28.3,30.15,North,0,0.0,0.0,38,0.00,CLR,,0.00,WeatherDisplay:10.37,2013-05-03 03:05:00,
2013-05-02 22:10:00,53.1,28.1,30.15,NW,315,0.0,0.0,38,0.00,CLR,,0.00,WeatherDisplay:10.37,2013-05-03 03:10:00,
2013-05-02 22:15:00,52.9,28.6,30.15,NW,315,0.0,0.0,39,0.00,CLR,,0.00,WeatherDisplay:10.37,2013-05-03 03:15:00,
2013-05-02 22:20:00,52.7,29.0,30.15,WSW,248,0.0,0.0,40,0.00,CLR,,0.00,WeatherDisplay:10.37,2013-05-03 03:20:00,
2013-05-02 22:25:00,52.3,28.1,30.15,NW,315,0.0,0.0,39,0.00,CLR,,0.00,WeatherDisplay:10.37,2013-05-03 03:25:00,
2013-05-02 22:30:00,52.2,28.5,30.15,NNW,338,0.0,0.0,40,0.00,CLR,,0.00,WeatherDisplay:10.37,2013-05-03 03:30:00,
2013-05-02 22:35:00,52.0,27.8,30.15,NW,315,0.0,0.0,39,0.00,CLR,,0.00,WeatherDisplay:10.37,2013-05-03 03:35:00,
2013-05-02 22:40:00,52.0,28.4,30.15,NNW,338,3.5,0.0,40,0.00,CLR,,0.00,WeatherDisplay:10.37,2013-05-03 03:40:00,
2013-05-02 22:45:00,51.8,28.2,30.15,NW,315,1.2,0.0,40,0.00,CLR,,0.00,WeatherDisplay:10.37,2013-05-03 03:45:00,
2013-05-02 22:50:00,51.8,28.2,30.15,NNW,338,0.0,0.0,40,0.00,CLR,,0.00,WeatherDisplay:10.37,2013-05-03 03:50:00,
2013-05-02 22:55:00,51.6,28.1,30.15,NW,315,0.0,0.0,40,0.00,CLR,,0.00,WeatherDisplay:10.37,2013-05-03 03:55:00,
2013-05-02 23:00:00,51.6,28.1,30.15,NNW,338,0.0,0.0,40,0.00,CLR,,0.00,WeatherDisplay:10.37,2013-05-03 04:00:00,
2013-05-02 23:01:00,51.4,27.9,30.15,North,0,0.0,0.0,40,0.00,CLR,,0.00,WeatherDisplay:10.37,2013-05-03 04:01:00,
2013-05-02 23:06:00,51.3,27.7,30.15,NNW,338,0.0,0.0,40,0.00,CLR,,0.00,WeatherDisplay:10.37,2013-05-03 04:06:00,
2013-05-02 23:11:00,51.3,27.7,30.15,NW,315,0.0,0.0,40,0.00,CLR,,0.00,WeatherDisplay:10.37,2013-05-03 04:11:00,
2013-05-02 23:16:00,51.1,27.6,30.15,NW,315,0.0,0.0,40,0.00,CLR,,0.00,WeatherDisplay:10.37,2013-05-03 04:16:00,
2013-05-02 23:21:00,50.7,27.2,30.15,NNW,338,0.0,0.0,40,0.00,CLR,,0.00,WeatherDisplay:10.37,2013-05-03 04:21:00,
2013-05-02 23:26:00,50.5,27.1,30.15,NW,315,0.0,0.0,40,0.00,CLR,,0.00,WeatherDisplay:10.37,2013-05-03 04:26:00,
2013-05-02 23:31:00,50.4,26.9,30.15,NW,315,0.0,0.0,40,0.00,CLR,,0.00,WeatherDisplay:10.37,2013-05-03 04:31:00,
2013-05-02 23:36:00,50.2,26.8,30.12,NW,315,0.0,0.0,40,0.00,CLR,,0.00,WeatherDisplay:10.37,2013-05-03 04:36:00,
2013-05-02 23:42:00,50.0,26.0,30.12,NE,45,0.0,0.0,39,0.00,CLR,,0.00,WeatherDisplay:10.37,2013-05-03 04:42:00,
2013-05-02 23:47:00,50.0,26.0,30.12,NW,315,0.0,0.0,39,0.00,CLR,,0.00,WeatherDisplay:10.37,2013-05-03 04:47:00,
2013-05-02 23:52:00,49.8,25.8,30.15,North,0,0.0,0.0,39,0.00,CLR,,0.00,WeatherDisplay:10.37,2013-05-03 04:52:00,
2013-05-02 23:57:00,49.8,25.8,30.15,NW,315,0.0,0.0,39,0.00,CLR,,0.00,WeatherDisplay:10.37,2013-05-03 04:57:00,